Terminal Aerodrome Forecast
Issued by NWS Blacksburg, VA

Home | Current Version | Previous Version | Text Only | Print | Product List | Glossary On
Versions: 1 2 3 4 5 6 7 8 9 10 11 12 13 14 15 16 17 18 19 20 21 22 23 24 25 26 27 28 29
000
FTUS41 KRNK 030914 AAA
TAFROA
TAF AMD
KROA 030914Z 0309/0406 00000KT P6SM OVC060
     FM031000 VRB03KT P6SM VCSH BKN020
     FM031500 09004KT P6SM -SHRA BKN025
     FM031900 14006KT P6SM -SHRA VCTS BKN030CB
      TEMPO 0319/0323 2SM -SHRA BR OVC015
     FM040300 24005KT P6SM BKN025 OVC050
      TEMPO 0403/0406 OVC050=

USA.gov is the U.S. government's official web portal to all federal, state and local government web resources and services.